Time;durP1;ratioP1;P1;durP2;ratioP2;P2;SDS_P1;SDS_P2;PMS_P1;PMS_P2;Temp;Humidity;BMP_temperature;BMP_pressure;BME280_temperature;BME280_humidity;BME280_pressure;Samples;Min_cycle;Max_cycle;Signal;HPM_P1;HPM_P2
2022/04/17 00:00:48;;;;;;;11.73;5.32;;;;;;;17.94;49.78;99495.88;5038553;28;20052;-74
2022/04/17 00:03:14;;;;;;;9.13;5.07;;;;;;;17.99;49.76;99506.78;5038687;28;20044;-74
2022/04/17 00:05:39;;;;;;;11.93;5.40;;;;;;;17.79;49.60;99478.25;5038145;28;20374;-74
2022/04/17 00:08:05;;;;;;;11.45;5.40;;;;;;;17.82;50.70;99509.97;5037543;28;20101;-74
2022/04/17 00:10:31;;;;;;;11.15;5.18;;;;;;;17.85;50.53;99503.34;5038915;28;20334;-73
2022/04/17 00:12:57;;;;;;;13.73;6.03;;;;;;;17.90;50.77;99503.53;5038630;28;20105;-73
2022/04/17 00:15:23;;;;;;;13.77;5.50;;;;;;;17.93;52.35;99497.75;5033965;28;20479;-73
2022/04/17 00:17:49;;;;;;;11.10;5.72;;;;;;;17.93;52.36;99502.28;5038581;28;20033;-73
2022/04/17 00:20:16;;;;;;;8.90;5.25;;;;;;;17.92;49.53;99495.28;5039545;28;20097;-73
2022/04/17 00:22:42;;;;;;;10.25;5.18;;;;;;;17.98;50.26;99489.06;5039274;28;20087;-73
2022/04/17 00:25:09;;;;;;;8.05;5.10;;;;;;;17.86;50.83;99484.38;5039055;28;20413;-73
2022/04/17 00:27:35;;;;;;;8.68;4.53;;;;;;;17.89;50.19;99499.22;5037186;28;20025;-74
2022/04/17 00:30:06;;;;;;;8.50;5.30;;;;;;;17.89;51.89;99488.50;5038083;28;20143;-74
2022/04/17 00:32:32;;;;;;;7.00;4.68;;;;;;;17.89;50.31;99501.06;5039094;28;20048;-74
2022/04/17 00:34:58;;;;;;;8.48;5.43;;;;;;;17.82;50.50;99493.06;5038337;28;20021;-74
2022/04/17 00:37:24;;;;;;;9.27;4.78;;;;;;;17.71;50.59;99494.56;5039240;28;20273;-73
2022/04/17 00:39:49;;;;;;;9.05;5.22;;;;;;;17.82;50.91;99493.91;5039262;28;20038;-74
2022/04/17 00:42:15;;;;;;;11.52;5.43;;;;;;;17.68;51.61;99500.31;5037671;28;20267;-74
2022/04/17 00:44:40;;;;;;;9.57;5.45;;;;;;;17.41;51.31;99490.75;5039107;28;20040;-73
2022/04/17 00:47:08;;;;;;;16.05;6.43;;;;;;;17.31;51.95;99496.53;5039327;28;20075;-73
2022/04/17 00:49:34;;;;;;;12.98;6.80;;;;;;;17.00;53.71;99481.22;5038098;28;20033;-73
2022/04/17 00:52:00;;;;;;;15.70;6.60;;;;;;;17.07;53.05;99492.72;5038839;28;20048;-73
2022/04/17 00:54:27;;;;;;;14.10;7.32;;;;;;;17.20;52.47;99499.88;5037668;28;20021;-73
2022/04/17 00:56:53;;;;;;;21.92;9.07;;;;;;;17.36;51.13;99493.22;5039120;28;20037;-73
2022/04/17 00:59:20;;;;;;;27.85;9.63;;;;;;;17.43;51.68;99488.69;5037799;28;20032;-73
2022/04/17 01:01:45;;;;;;;20.73;9.80;;;;;;;17.22;52.00;99492.47;5039010;28;20045;-73
2022/04/17 01:04:12;;;;;;;17.83;9.32;;;;;;;17.21;52.13;99494.31;5037391;28;20053;-74
2022/04/17 01:06:39;;;;;;;15.45;9.15;;;;;;;17.16;54.82;99499.47;5037697;28;20044;-73
2022/04/17 01:09:06;;;;;;;30.90;13.70;;;;;;;17.10;57.21;99496.81;5038187;28;20034;-73
2022/04/17 01:11:32;;;;;;;59.20;21.30;;;;;;;16.90;58.04;99492.34;5037902;28;20041;-74
2022/04/17 01:13:58;;;;;;;29.65;12.98;;;;;;;16.79;59.05;99484.97;5038900;28;20043;-74
2022/04/17 01:16:25;;;;;;;31.58;12.57;;;;;;;16.81;59.30;99488.25;5037997;28;20283;-74
2022/04/17 01:19:04;;;;;;;19.67;9.98;;;;;;;16.44;60.38;99486.16;5039644;28;20018;-74
2022/04/17 01:21:31;;;;;;;21.23;9.32;;;;;;;16.50;59.04;99490.69;5039201;28;20056;-74
2022/04/17 01:26:57;;;;;;;13.35;6.93;;;;;;;16.09;57.40;99493.56;5039662;28;20088;-74
2022/04/17 01:29:25;;;;;;;10.38;6.15;;;;;;;16.04;57.06;99490.66;5038067;28;20049;-73
2022/04/17 01:31:51;;;;;;;18.23;5.45;;;;;;;15.80;57.85;99492.06;5038428;28;20025;-73
2022/04/17 01:34:17;;;;;;;13.57;5.30;;;;;;;15.80;57.17;99497.41;5038828;28;20064;-73
2022/04/17 01:36:49;;;;;;;11.70;4.45;;;;;;;15.81;56.33;99488.38;5038008;28;20242;-74
2022/04/17 01:39:15;;;;;;;11.27;4.65;;;;;;;15.75;56.44;99492.66;5050103;28;20113;-74
2022/04/17 01:41:41;;;;;;;8.18;4.68;;;;;;;15.81;56.06;99488.38;5036711;28;20029;-74
2022/04/17 01:44:07;;;;;;;11.80;4.90;;;;;;;15.78;56.19;99486.09;5039279;28;20048;-74
2022/04/17 01:46:33;;;;;;;8.10;4.65;;;;;;;15.72;56.28;99486.91;5038880;28;20248;-73
2022/04/17 01:48:59;;;;;;;12.32;4.55;;;;;;;15.63;56.72;99480.94;5037315;28;20029;-74
2022/04/17 01:51:25;;;;;;;8.73;5.10;;;;;;;15.53;57.12;99481.25;5038469;28;20064;-73
2022/04/17 01:53:51;;;;;;;8.82;5.20;;;;;;;15.66;56.55;99488.53;5037936;28;20033;-73
2022/04/17 01:56:16;;;;;;;11.35;5.25;;;;;;;15.69;56.31;99485.47;5043289;28;20033;-73
2022/04/17 01:58:42;;;;;;;7.82;4.78;;;;;;;15.62;56.93;99471.28;5041672;28;20378;-73
2022/04/17 02:01:07;;;;;;;8.15;4.93;;;;;;;15.66;56.75;99479.72;5041973;28;20069;-73
2022/04/17 02:03:34;;;;;;;9.13;4.75;;;;;;;15.85;56.72;99482.41;5041376;28;20043;-73
2022/04/17 02:06:00;;;;;;;9.10;5.45;;;;;;;15.96;56.31;99475.66;5058471;28;20053;-73
2022/04/17 02:08:28;;;;;;;11.65;4.35;;;;;;;16.16;55.14;99473.84;5041102;28;20097;-73
2022/04/17 02:10:54;;;;;;;7.85;4.22;;;;;;;16.16;54.96;99473.00;5039187;28;20037;-73
2022/04/17 02:13:20;;;;;;;10.57;4.90;;;;;;;16.07;55.06;99471.56;5041676;28;20033;-73
2022/04/17 02:15:46;;;;;;;9.18;4.95;;;;;;;16.24;55.17;99470.97;5041190;28;20084;-73
2022/04/17 02:18:13;;;;;;;10.77;4.70;;;;;;;16.08;54.80;99479.38;5041395;28;20148;-74
2022/04/17 02:20:39;;;;;;;14.20;5.05;;;;;;;16.33;54.51;99476.94;5040238;28;20025;-74
2022/04/17 02:23:04;;;;;;;8.48;5.00;;;;;;;16.47;53.27;99483.91;5041655;28;20208;-74
2022/04/17 02:25:29;;;;;;;8.43;4.35;;;;;;;16.48;52.55;99461.50;5041349;28;20041;-74
2022/04/17 02:27:55;;;;;;;11.10;4.50;;;;;;;16.72;52.09;99484.16;5043183;28;20060;-74
2022/04/17 02:30:20;;;;;;;7.60;4.32;;;;;;;16.67;51.91;99475.09;5043054;28;20097;-74
2022/04/17 02:32:46;;;;;;;8.05;4.18;;;;;;;16.33;52.38;99481.44;5042653;28;20096;-74
2022/04/17 02:35:11;;;;;;;13.32;4.32;;;;;;;15.99;54.38;99477.94;5040470;28;20243;-73
2022/04/17 02:37:37;;;;;;;12.45;4.15;;;;;;;15.80;54.44;99486.72;5041493;28;20037;-74
2022/04/17 02:40:03;;;;;;;9.88;4.22;;;;;;;15.69;54.63;99485.47;5040480;28;20029;-72
2022/04/17 02:42:28;;;;;;;8.93;4.57;;;;;;;15.53;55.50;99485.75;5056414;28;20100;-73
2022/04/17 02:44:54;;;;;;;10.52;4.75;;;;;;;15.37;56.28;99478.94;5039027;28;20029;-73
2022/04/17 02:50:04;;;;;;;10.10;3.85;;;;;;;15.23;55.89;99477.22;5041073;28;20219;-74
2022/04/17 02:52:29;;;;;;;9.38;4.50;;;;;;;15.23;56.27;99475.38;5040246;28;20449;-74
2022/04/17 02:54:55;;;;;;;6.78;4.20;;;;;;;15.24;56.01;99477.03;5040916;28;20033;-74
2022/04/17 02:57:21;;;;;;;10.35;4.50;;;;;;;15.20;56.84;99464.28;5040200;28;20464;-73
2022/04/17 02:59:46;;;;;;;9.18;4.53;;;;;;;15.44;57.17;99471.78;5041608;28;20029;-73
2022/04/17 03:07:39;;;;;;;11.68;4.63;;;;;;;15.11;57.28;99470.81;5040654;28;20571;-73
2022/04/17 03:10:05;;;;;;;15.18;4.60;;;;;;;14.98;57.25;99479.56;5040887;28;20029;-73
2022/04/17 03:12:31;;;;;;;10.40;5.20;;;;;;;14.82;57.51;99472.72;5040535;28;20250;-73
2022/04/17 03:14:56;;;;;;;9.25;4.40;;;;;;;14.83;58.17;99485.03;5040602;28;20108;-73
2022/04/17 03:17:22;;;;;;;9.77;5.00;;;;;;;14.77;57.71;99482.31;5039827;28;20100;-73
2022/04/17 03:19:47;;;;;;;8.68;4.50;;;;;;;14.76;57.84;99486.00;5037281;28;20028;-73
2022/04/17 03:22:13;;;;;;;6.57;4.85;;;;;;;14.93;58.57;99490.81;5041248;28;20100;-73
2022/04/17 03:24:39;;;;;;;8.23;4.75;;;;;;;14.82;58.56;99496.69;5040687;28;20160;-73
2022/04/17 03:27:04;;;;;;;9.55;5.15;;;;;;;14.89;59.08;99505.56;5041610;28;20086;-73
2022/04/17 03:29:30;;;;;;;13.35;5.45;;;;;;;14.76;59.31;99507.31;5041283;28;20108;-73
2022/04/17 03:31:56;;;;;;;13.43;5.70;;;;;;;14.66;60.36;99510.34;5041053;28;20113;-73
2022/04/17 03:34:22;;;;;;;12.15;5.95;;;;;;;14.51;60.90;99514.91;5040778;28;20278;-73
2022/04/17 03:36:48;;;;;;;10.60;5.75;;;;;;;14.44;62.17;99514.84;5034631;28;20052;-73
2022/04/17 03:39:13;;;;;;;11.25;5.65;;;;;;;14.30;62.60;99518.38;5038694;28;20047;-73
2022/04/17 03:41:39;;;;;;;11.98;5.63;;;;;;;14.27;63.84;99518.75;5040351;28;20041;-73
2022/04/17 03:44:04;;;;;;;12.98;5.88;;;;;;;14.12;64.24;99520.66;5039242;28;20026;-72
2022/04/17 03:46:30;;;;;;;9.50;5.15;;;;;;;14.02;66.06;99519.16;5039829;28;20249;-73
2022/04/17 03:48:56;;;;;;;13.52;6.03;;;;;;;13.99;66.92;99516.88;5039138;28;20044;-73
2022/04/17 03:51:21;;;;;;;13.55;5.88;;;;;;;14.02;67.28;99515.66;5039795;28;20030;-73
2022/04/17 03:53:47;;;;;;;10.35;5.10;;;;;;;13.96;69.21;99530.56;5039719;28;20311;-73
2022/04/17 03:56:12;;;;;;;12.77;6.10;;;;;;;14.02;69.68;99534.28;5039041;28;20025;-73
2022/04/17 03:58:38;;;;;;;12.15;5.30;;;;;;;13.96;71.44;99543.84;5039709;28;20041;-73
2022/04/17 04:01:03;;;;;;;8.82;6.03;;;;;;;13.72;73.32;99541.53;5039743;28;20037;-73
2022/04/17 04:03:29;;;;;;;9.48;6.43;;;;;;;13.57;75.29;99544.22;5039085;28;20033;-73
2022/04/17 04:05:55;;;;;;;17.08;7.15;;;;;;;13.48;78.21;99544.50;5040554;28;20041;-73
2022/04/17 04:08:21;;;;;;;13.30;7.60;;;;;;;13.43;78.82;99550.38;5040641;28;20036;-73
2022/04/17 04:10:46;;;;;;;17.60;7.35;;;;;;;13.50;79.95;99543.28;5040780;28;20052;-73
2022/04/17 04:13:12;;;;;;;11.35;6.85;;;;;;;13.39;80.91;99554.41;5039606;28;20053;-73
2022/04/17 04:15:37;;;;;;;10.63;7.53;;;;;;;13.14;83.91;99550.34;5039068;28;20033;-73
2022/04/17 04:18:03;;;;;;;12.85;7.60;;;;;;;13.14;85.23;99547.69;5039990;28;20044;-73
2022/04/17 04:20:28;;;;;;;11.27;7.82;;;;;;;13.18;85.92;99551.66;5039567;28;20037;-73
2022/04/17 04:22:55;;;;;;;13.70;8.32;;;;;;;13.21;86.84;99557.44;5040061;28;20037;-74
2022/04/17 04:25:20;;;;;;;14.60;8.48;;;;;;;13.22;88.83;99552.94;5038401;28;20030;-74
2022/04/17 04:30:30;;;;;;;13.88;9.52;;;;;;;13.05;91.68;99558.41;5038092;28;20321;-74
2022/04/17 04:32:57;;;;;;;15.38;8.93;;;;;;;12.92;92.26;99562.72;5039862;28;20353;-74
2022/04/17 04:35:23;;;;;;;18.17;9.45;;;;;;;12.90;93.66;99560.22;5039223;28;20029;-74
2022/04/17 04:37:49;;;;;;;19.10;10.48;;;;;;;12.99;94.11;99569.78;5037054;28;20068;-74
2022/04/17 04:40:15;;;;;;;13.60;9.25;;;;;;;12.90;94.78;99572.69;5039536;28;20342;-73
2022/04/17 04:42:41;;;;;;;14.82;9.55;;;;;;;12.76;95.97;99563.69;5039410;28;20033;-73
2022/04/17 04:47:51;;;;;;;;;;;;;;;12.75;97.01;99583.28;5039916;28;20369;-73
2022/04/17 04:50:16;;;;;;;18.75;11.80;;;;;;;12.68;98.51;99591.16;5033925;28;19912;-73
2022/04/17 04:52:42;;;;;;;20.77;10.75;;;;;;;12.68;98.47;99590.34;5039032;28;20021;-73
2022/04/17 04:55:08;;;;;;;27.48;14.10;;;;;;;12.57;100.00;99580.97;5037715;28;20051;-73
2022/04/17 04:57:37;;;;;;;20.85;13.60;;;;;;;12.65;100.00;99588.03;5035340;28;20040;-74
2022/04/17 05:00:06;;;;;;;19.40;11.32;;;;;;;12.69;100.00;99600.78;5038707;28;20037;-73
2022/04/17 05:02:34;;;;;;;18.33;11.63;;;;;;;12.58;100.00;99573.81;5040061;28;20092;-74
2022/04/17 05:04:59;;;;;;;18.17;10.55;;;;;;;12.68;100.00;99599.13;5041434;28;20048;-73
2022/04/17 05:07:25;;;;;;;18.90;12.45;;;;;;;12.67;100.00;99592.16;5042073;28;20033;-73
2022/04/17 05:09:50;;;;;;;25.02;13.70;;;;;;;12.54;100.00;99593.78;5041699;28;20254;-73
2022/04/17 05:12:16;;;;;;;23.65;14.35;;;;;;;12.54;100.00;99599.91;5040921;28;20053;-73
2022/04/17 05:14:44;;;;;;;20.88;14.05;;;;;;;12.48;100.00;99600.59;5041687;28;20029;-73
2022/04/17 05:17:09;;;;;;;22.42;14.07;;;;;;;12.40;100.00;99604.13;5042496;28;20037;-73
2022/04/17 05:19:35;;;;;;;20.63;13.43;;;;;;;12.42;100.00;99606.59;5041945;28;20097;-72
2022/04/17 05:22:02;;;;;;;19.17;12.10;;;;;;;12.25;100.00;99607.72;5041688;28;20045;-72
2022/04/17 05:24:28;;;;;;;18.55;12.38;;;;;;;12.41;100.00;99604.97;5041603;28;20032;-73
2022/04/17 05:26:53;;;;;;;19.13;12.60;;;;;;;12.38;100.00;99611.44;5041846;28;20041;-73
2022/04/17 05:29:19;;;;;;;25.27;13.95;;;;;;;12.26;100.00;99618.16;5045343;28;20022;-73
2022/04/17 05:31:48;;;;;;;22.08;13.43;;;;;;;12.15;100.00;99605.28;5044628;28;20037;-73
2022/04/17 05:34:14;;;;;;;20.52;12.57;;;;;;;12.15;100.00;99608.78;5045799;28;20366;-73
2022/04/17 05:36:40;;;;;;;19.70;12.75;;;;;;;12.16;100.00;99609.59;5044591;28;20022;-73
2022/04/17 05:39:06;;;;;;;17.05;12.40;;;;;;;12.15;100.00;99603.47;5045521;28;20100;-73
2022/04/17 05:41:32;;;;;;;20.77;12.63;;;;;;;12.04;100.00;99618.97;5044557;28;20044;-73
2022/04/17 05:43:59;;;;;;;25.95;13.63;;;;;;;12.15;100.00;99608.78;5045682;28;20038;-73
2022/04/17 05:46:27;;;;;;;17.25;11.15;;;;;;;11.98;100.00;99614.34;5045472;28;20061;-73
2022/04/17 05:48:53;;;;;;;22.05;12.48;;;;;;;11.89;100.00;99597.66;5045162;28;20088;-73
2022/04/17 05:51:19;;;;;;;17.08;11.52;;;;;;;11.82;100.00;99621.41;5045236;28;20270;-73
2022/04/17 05:53:44;;;;;;;17.73;13.13;;;;;;;11.90;100.00;99617.06;5045111;28;20039;-72
2022/04/17 05:56:10;;;;;;;19.80;12.77;;;;;;;11.73;100.00;99606.50;5042877;28;20053;-72
2022/04/17 05:58:35;;;;;;;22.63;13.50;;;;;;;11.83;100.00;99625.72;5041619;28;20100;-73
2022/04/17 06:01:02;;;;;;;19.05;13.05;;;;;;;11.77;100.00;99614.94;5041829;28;20101;-73
2022/04/17 06:03:28;;;;;;;20.55;13.48;;;;;;;11.88;100.00;99630.50;5041043;28;20108;-73
2022/04/17 06:05:53;;;;;;;18.85;12.45;;;;;;;11.68;100.00;99618.63;5041558;28;20305;-73
2022/04/17 06:08:19;;;;;;;18.02;14.15;;;;;;;11.60;100.00;99605.38;5040329;28;20064;-73
2022/04/17 06:10:44;;;;;;;23.20;14.40;;;;;;;11.61;100.00;99613.16;5041833;28;20215;-73
2022/04/17 06:13:10;;;;;;;18.90;13.13;;;;;;;11.51;100.00;99608.06;5041110;28;20052;-73
2022/04/17 06:15:35;;;;;;;26.27;15.70;;;;;;;11.56;100.00;99596.94;5041489;28;20603;-73
2022/04/17 06:18:01;;;;;;;23.25;15.68;;;;;;;11.61;100.00;99594.59;5042301;28;20035;-73
2022/04/17 06:20:26;;;;;;;21.92;14.88;;;;;;;11.57;100.00;99601.25;5041257;28;20080;-73
2022/04/17 06:22:52;;;;;;;26.73;17.17;;;;;;;11.47;100.00;99614.72;5041708;28;20104;-73
2022/04/17 06:25:17;;;;;;;21.30;15.43;;;;;;;11.44;100.00;99604.44;5040251;28;20393;-73
2022/04/17 06:27:46;;;;;;;26.27;16.52;;;;;;;11.67;100.00;99601.88;5041543;28;20029;-73
2022/04/17 06:30:17;;;;;;;28.05;14.90;;;;;;;11.53;100.00;99607.91;5038571;28;20017;-73
2022/04/17 06:32:43;;;;;;;24.48;15.98;;;;;;;11.62;100.00;99608.69;5041446;28;20049;-73
2022/04/17 06:35:11;;;;;;;29.73;19.17;;;;;;;11.56;100.00;99588.16;5040552;28;20044;-73
2022/04/17 06:37:50;;;;;;;32.78;19.05;;;;;;;11.56;100.00;99585.50;5041583;28;20033;-73
2022/04/17 06:40:28;;;;;;;28.10;17.50;;;;;;;11.58;100.00;99602.91;5039866;28;20071;-73
2022/04/17 06:42:56;;;;;;;26.33;18.10;;;;;;;11.37;100.00;99592.00;5040770;28;20029;-73
2022/04/17 06:45:22;;;;;;;26.98;17.80;;;;;;;11.47;100.00;99598.81;5041028;28;20095;-73
2022/04/17 06:47:48;;;;;;;26.83;16.45;;;;;;;11.46;100.00;99605.09;5040781;28;20410;-73
2022/04/17 06:50:15;;;;;;;25.10;15.52;;;;;;;11.67;100.00;99604.53;5040963;28;20037;-73
2022/04/17 06:52:40;;;;;;;25.13;17.52;;;;;;;11.61;100.00;99591.13;5039687;28;20080;-73
2022/04/17 06:55:08;;;;;;;27.60;17.88;;;;;;;11.38;100.00;99602.44;5040677;28;20041;-73
2022/04/17 06:57:34;;;;;;;24.75;17.67;;;;;;;11.75;100.00;99612.44;5040921;28;20041;-73
2022/04/17 07:00:09;;;;;;;28.17;16.98;;;;;;;11.63;100.00;99600.56;5039076;28;20204;-73
2022/04/17 07:02:36;;;;;;;30.05;17.95;;;;;;;11.56;100.00;99596.94;5040780;28;20033;-73
2022/04/17 07:05:01;;;;;;;29.98;18.50;;;;;;;11.69;100.00;99599.03;5041080;28;20327;-73
2022/04/17 07:07:27;;;;;;;24.75;18.55;;;;;;;11.64;100.00;99599.56;5042102;28;20043;-73
2022/04/17 07:09:54;;;;;;;26.15;18.92;;;;;;;11.68;100.00;99600.03;5041341;28;20040;-73
2022/04/17 07:12:20;;;;;;;29.75;18.85;;;;;;;11.71;100.00;99605.00;5041379;28;21165;-73
2022/04/17 07:14:47;;;;;;;31.33;20.98;;;;;;;11.72;100.00;99599.53;5041383;28;20029;-74
2022/04/17 07:17:13;;;;;;;36.50;22.88;;;;;;;11.50;100.00;99593.16;5040591;28;20029;-73
2022/04/17 07:19:39;;;;;;;31.08;21.42;;;;;;;11.73;100.00;99610.97;5040516;28;20204;-73
2022/04/17 07:22:04;;;;;;;33.00;22.30;;;;;;;11.68;100.00;99600.88;5040496;28;20076;-73
2022/04/17 07:24:30;;;;;;;29.85;19.88;;;;;;;11.63;100.00;99613.00;5040421;28;20039;-73
2022/04/17 07:26:56;;;;;;;31.05;21.17;;;;;;;11.58;100.00;99620.63;5039665;28;20113;-73
2022/04/17 07:29:26;;;;;;;32.10;20.45;;;;;;;11.64;100.00;99617.31;5038806;28;20520;-73
2022/04/17 07:31:55;;;;;;;30.77;19.10;;;;;;;11.34;100.00;99590.53;5040764;28;20037;-73
2022/04/17 07:34:21;;;;;;;35.35;22.35;;;;;;;11.68;100.00;99621.25;5039904;28;20070;-72
2022/04/17 07:36:47;;;;;;;34.00;21.52;;;;;;;11.85;100.00;99630.84;5039992;28;20045;-73
2022/04/17 07:39:19;;;;;;;31.58;21.90;;;;;;;11.68;100.00;99623.91;5037596;28;20308;-73
2022/04/17 07:41:46;;;;;;;36.22;22.00;;;;;;;11.68;100.00;99623.91;5038546;28;20159;-73
2022/04/17 07:44:12;;;;;;;34.55;22.13;;;;;;;11.74;100.00;99617.94;5039919;28;20036;-73
2022/04/17 07:46:39;;;;;;;34.55;21.13;;;;;;;11.98;100.00;99603.75;5040134;28;20045;-73
2022/04/17 07:49:04;;;;;;;34.72;24.08;;;;;;;12.10;100.00;99605.00;5039708;28;20041;-73
2022/04/17 07:51:30;;;;;;;31.08;21.25;;;;;;;11.97;100.00;99600.25;5038808;28;20067;-74
2022/04/17 07:53:55;;;;;;;33.63;23.30;;;;;;;11.77;100.00;99596.34;5037956;28;20100;-74
2022/04/17 07:56:21;;;;;;;37.08;24.80;;;;;;;11.95;100.00;99610.22;5039179;28;20100;-73
2022/04/17 07:58:47;;;;;;;38.95;26.58;;;;;;;12.18;100.00;99602.28;5055430;28;20034;-73
2022/04/17 08:01:14;;;;;;;44.05;29.15;;;;;;;12.27;100.00;99603.88;5040192;28;20093;-73
2022/04/17 08:06:06;;;;;;;43.13;28.98;;;;;;;12.29;100.00;99593.09;5039413;28;20057;-74
2022/04/17 08:08:35;;;;;;;47.63;31.35;;;;;;;12.52;100.00;99599.25;5038700;28;20056;-73
2022/04/17 08:11:01;;;;;;;31.67;21.73;;;;;;;12.47;100.00;99597.09;5038988;28;20350;-73
2022/04/17 08:13:26;;;;;;;32.58;22.77;;;;;;;12.42;100.00;99585.38;5039739;28;20070;-73
2022/04/17 08:15:52;;;;;;;34.30;21.55;;;;;;;12.46;100.00;99587.47;5038533;28;20249;-73
2022/04/17 08:18:18;;;;;;;31.13;20.83;;;;;;;12.56;100.00;99578.47;5039283;28;20338;-73
2022/04/17 08:20:44;;;;;;;27.10;20.13;;;;;;;12.86;100.00;99574.88;5040049;28;20045;-73
2022/04/17 08:23:09;;;;;;;27.58;19.20;;;;;;;12.92;100.00;99582.13;5038805;28;20246;-73
2022/04/17 08:25:36;;;;;;;27.80;19.90;;;;;;;12.90;100.00;99583.31;5039760;28;20048;-73
2022/04/17 08:28:02;;;;;;;28.70;19.98;;;;;;;12.88;100.00;99577.38;5040022;28;20322;-73
2022/04/17 08:30:30;;;;;;;26.75;18.35;;;;;;;13.00;100.00;99576.75;5039838;28;20033;-73
2022/04/17 08:32:56;;;;;;;25.20;18.90;;;;;;;13.24;100.00;99588.97;5038894;28;20057;-73
2022/04/17 08:35:22;;;;;;;24.83;17.13;;;;;;;13.14;100.00;99584.91;5035422;28;20057;-73
2022/04/17 08:37:48;;;;;;;24.15;17.27;;;;;;;13.07;100.00;99590.94;5038150;28;20065;-74
2022/04/17 08:40:14;;;;;;;22.70;17.38;;;;;;;13.30;100.00;99592.75;5038755;28;20048;-74
2022/04/17 08:42:40;;;;;;;27.55;17.75;;;;;;;13.30;100.00;99590.91;5037410;28;20026;-74
2022/04/17 08:45:07;;;;;;;28.98;19.35;;;;;;;13.10;100.00;99587.09;5039824;28;20319;-74
2022/04/17 08:47:35;;;;;;;23.27;16.90;;;;;;;13.05;100.00;99585.00;5039956;28;20052;-73
2022/04/17 08:50:01;;;;;;;26.63;18.75;;;;;;;13.17;100.00;99585.41;5036649;28;20075;-73
2022/04/17 08:52:30;;;;;;;23.27;16.52;;;;;;;13.35;100.00;99582.38;5038900;28;20037;-73
2022/04/17 08:54:59;;;;;;;21.60;16.98;;;;;;;13.07;100.00;99582.97;5038231;28;20045;-73
2022/04/17 08:57:25;;;;;;;24.27;18.15;;;;;;;13.07;100.00;99582.97;5038968;28;20025;-73
2022/04/17 08:59:50;;;;;;;21.42;16.30;;;;;;;13.21;100.00;99581.38;5038817;28;20024;-74
2022/04/17 09:02:17;;;;;;;22.33;16.05;;;;;;;12.66;100.00;99581.72;5038128;28;20223;-74
2022/04/17 09:04:43;;;;;;;22.48;16.70;;;;;;;12.74;100.00;99571.00;5038598;28;20083;-74
2022/04/17 09:07:11;;;;;;;23.55;16.30;;;;;;;12.73;100.00;99561.41;5037629;28;20041;-73
2022/04/17 09:09:47;;;;;;;31.35;19.83;;;;;;;12.69;100.00;99565.41;5038629;28;20038;-73
2022/04/17 09:12:20;;;;;;;27.92;17.65;;;;;;;12.65;100.00;99569.44;5039149;28;20033;-73
2022/04/17 09:14:46;;;;;;;23.45;17.15;;;;;;;12.32;100.00;99545.78;5038421;28;20044;-73
2022/04/17 09:17:11;;;;;;;24.40;16.95;;;;;;;12.47;100.00;99564.41;5038523;28;20037;-73
2022/04/17 09:19:37;;;;;;;26.27;16.02;;;;;;;12.25;100.00;99560.75;5038849;28;20234;-73
2022/04/17 09:22:05;;;;;;;23.77;15.48;;;;;;;12.27;100.00;99556.09;5038550;28;20033;-73
2022/04/17 09:24:38;;;;;;;22.42;14.38;;;;;;;12.22;100.00;99563.78;5037573;28;20026;-72
2022/04/17 09:27:05;;;;;;;26.73;15.98;;;;;;;12.07;100.00;99563.72;5035982;28;20040;-73
2022/04/17 09:29:33;;;;;;;23.75;13.55;;;;;;;11.88;100.00;99556.22;5037712;28;20036;-73
2022/04/17 09:32:04;;;;;;;24.48;16.20;;;;;;;11.91;100.00;99565.63;5038375;28;20091;-73
2022/04/17 09:34:43;;;;;;;25.45;16.27;;;;;;;11.97;100.00;99559.63;5037625;28;20040;-73
2022/04/17 09:37:16;;;;;;;23.13;15.57;;;;;;;12.08;100.00;99567.19;5038368;28;20045;-73
2022/04/17 09:39:42;;;;;;;24.13;15.07;;;;;;;12.09;100.00;99555.56;5037782;28;20025;-73
2022/04/17 09:42:08;;;;;;;27.70;16.40;;;;;;;12.06;100.00;99551.44;5038756;28;20101;-73
2022/04/17 09:44:47;;;;;;;26.70;18.20;;;;;;;12.19;100.00;99544.72;5035842;28;20445;-73
2022/04/17 09:47:32;;;;;;;23.80;15.65;;;;;;;12.28;100.00;99547.13;5038759;28;20117;-73
2022/04/17 09:49:59;;;;;;;28.25;17.45;;;;;;;12.24;100.00;99545.84;5034137;28;20045;-73
2022/04/17 09:52:31;;;;;;;26.55;17.40;;;;;;;11.82;100.00;99535.69;5037825;28;20037;-73
2022/04/17 09:54:58;;;;;;;23.85;15.48;;;;;;;11.69;100.00;99544.19;5036966;28;20056;-73
2022/04/17 09:57:33;;;;;;;19.13;12.18;;;;;;;11.59;100.00;99525.00;5038686;28;20242;-74
2022/04/17 10:00:10;;;;;;;18.02;11.68;;;;;;;11.46;100.00;99522.91;5036145;28;20030;-74
2022/04/17 10:02:38;;;;;;;18.10;11.75;;;;;;;11.42;100.00;99515.44;5035260;28;20056;-72
2022/04/17 10:05:08;;;;;;;22.13;11.80;;;;;;;11.30;100.00;99512.34;5038693;28;20037;-73
2022/04/17 10:07:34;;;;;;;18.35;10.55;;;;;;;11.34;100.00;99511.00;5036738;28;20041;-73
2022/04/17 10:10:00;;;;;;;13.55;9.07;;;;;;;11.45;100.00;99510.66;5038376;28;20037;-73
2022/04/17 10:12:26;;;;;;;14.23;9.93;;;;;;;11.44;100.00;99502.84;5038346;28;20204;-73
2022/04/17 10:14:54;;;;;;;16.27;10.48;;;;;;;11.18;100.00;99500.47;5037408;28;20297;-73
2022/04/17 10:17:21;;;;;;;15.55;11.05;;;;;;;11.24;100.00;99491.00;5040734;28;20037;-74
2022/04/17 10:19:48;;;;;;;18.10;10.43;;;;;;;11.41;100.00;99504.00;5037758;28;20021;-74
2022/04/17 10:22:18;;;;;;;14.23;9.82;;;;;;;11.27;100.00;99499.44;5041130;28;20346;-74
2022/04/17 10:24:51;;;;;;;14.60;9.27;;;;;;;11.31;100.00;99492.78;5041509;28;20100;-74
2022/04/17 10:27:22;;;;;;;15.02;9.48;;;;;;;11.25;100.00;99503.25;5040445;28;20301;-74
2022/04/17 10:29:54;;;;;;;12.25;8.23;;;;;;;11.14;100.00;99501.81;5038166;28;20083;-74
2022/04/17 10:32:44;;;;;;;10.57;7.10;;;;;;;11.00;100.00;99495.41;5040552;28;20032;-74
2022/04/17 10:35:48;;;;;;;11.55;7.57;;;;;;;11.06;100.00;99502.66;5041177;28;20049;-74
2022/04/17 10:38:29;;;;;;;10.75;7.30;;;;;;;11.03;100.00;99510.97;5041175;28;20101;-73
2022/04/17 10:41:05;;;;;;;8.70;5.78;;;;;;;10.95;100.00;99520.75;5036387;28;20044;-73
2022/04/17 10:43:58;;;;;;;6.93;4.78;;;;;;;10.88;100.00;99536.50;5041190;28;20029;-74
2022/04/17 10:46:24;;;;;;;9.70;5.65;;;;;;;10.83;100.00;99523.75;5036600;28;20049;-74
2022/04/17 10:49:01;;;;;;;8.05;5.53;;;;;;;10.89;100.00;99532.84;5039987;28;20052;-74
2022/04/17 10:51:30;;;;;;;7.15;4.82;;;;;;;10.91;100.00;99530.88;5037183;28;20276;-74
2022/04/17 10:54:14;;;;;;;6.93;4.65;;;;;;;10.80;100.00;99524.09;5039965;28;20031;-74
2022/04/17 10:57:01;;;;;;;6.25;4.18;;;;;;;10.74;100.00;99534.53;5038984;28;20033;-73
2022/04/17 10:59:45;;;;;;;7.55;4.30;;;;;;;10.80;100.00;99539.16;5033315;28;20327;-73
2022/04/17 11:02:10;;;;;;;;;;;;;;;10.65;100.00;99552.25;5038788;28;20029;-72
2022/04/17 11:04:50;;;;;;;5.97;3.72;;;;;;;10.70;100.00;99546.47;5040734;28;20102;-72
2022/04/17 11:07:15;;;;;;;5.47;4.03;;;;;;;10.50;100.00;99557.41;5041995;28;20041;-72
2022/04/17 11:09:46;;;;;;;7.45;4.03;;;;;;;10.48;100.00;99555.91;5041344;28;20093;-72
2022/04/17 11:12:17;;;;;;;9.88;4.72;;;;;;;10.43;100.00;99560.88;5073381;28;20234;-72
2022/04/17 11:15:01;;;;;;;5.78;3.70;;;;;;;10.28;100.00;99573.91;5040412;28;20044;-72
2022/04/17 11:17:31;;;;;;;5.47;3.90;;;;;;;10.23;100.00;99560.34;5034496;28;20319;-71
2022/04/17 11:19:59;;;;;;;7.07;4.22;;;;;;;10.27;100.00;99547.63;5035861;28;20025;-72
2022/04/17 11:22:33;;;;;;;7.75;4.85;;;;;;;10.19;100.00;99540.47;5041310;28;20037;-72
2022/04/17 11:24:58;;;;;;;10.50;4.10;;;;;;;10.14;100.00;99543.59;5040545;28;20101;-72
2022/04/17 11:27:41;;;;;;;6.65;4.40;;;;;;;10.10;100.00;99544.09;5037836;28;20022;-72
2022/04/17 11:30:27;;;;;;;7.70;4.43;;;;;;;10.00;100.00;99543.41;5032246;28;20037;-72
2022/04/17 11:32:53;;;;;;;9.52;5.57;;;;;;;10.20;100.00;99548.28;5038888;28;20036;-72
2022/04/17 11:35:24;;;;;;;7.35;4.90;;;;;;;10.05;100.00;99554.34;5040106;28;20059;-72
2022/04/17 11:38:03;;;;;;;6.88;3.63;;;;;;;10.10;100.00;99538.81;5038469;28;20033;-72
2022/04/17 11:40:31;;;;;;;9.13;4.05;;;;;;;10.03;100.00;99548.38;5037767;28;20045;-71